Time;durP1;ratioP1;P1;durP2;ratioP2;P2;SDS_P1;SDS_P2;PMS_P1;PMS_P2;Temp;Humidity;BMP_temperature;BMP_pressure;BME280_temperature;BME280_humidity;BME280_pressure;Samples;Min_cycle;Max_cycle;Signal;HPM_P1;HPM_P2
2022/04/19 00:01:48;;;;;;;17.85;9.43;;;;;;;7.34;47.73;100410.36;1771928;81;21527;-71
2022/04/19 00:04:16;;;;;;;18.77;10.43;;;;;;;7.30;47.76;100408.98;1766345;81;20973;-71
2022/04/19 00:06:44;;;;;;;14.33;9.13;;;;;;;7.28;47.79;100405.63;1772125;81;20994;-71
2022/04/19 00:09:10;;;;;;;13.20;7.67;;;;;;;7.26;47.80;100401.45;1766332;81;21837;-71
2022/04/19 00:11:36;;;;;;;13.22;7.55;;;;;;;7.24;47.83;100401.62;1735997;82;21080;-71
2022/04/19 00:14:02;;;;;;;19.27;7.92;;;;;;;7.21;47.86;100405.91;1766219;81;20961;-71
2022/04/19 00:16:28;;;;;;;12.88;7.47;;;;;;;7.18;47.87;100399.55;1736260;82;21035;-71
2022/04/19 00:18:54;;;;;;;14.47;7.58;;;;;;;7.16;47.90;100390.91;1766716;81;21017;-71
2022/04/19 00:21:20;;;;;;;14.63;7.03;;;;;;;7.14;47.92;100390.24;1736605;82;21142;-71
2022/04/19 00:23:47;;;;;;;14.03;6.80;;;;;;;7.13;47.93;100393.86;1766834;81;21529;-71
2022/04/19 00:26:13;;;;;;;17.65;7.45;;;;;;;7.11;47.92;100393.16;1736403;82;20988;-70
2022/04/19 00:28:41;;;;;;;13.40;6.55;;;;;;;7.10;47.92;100390.19;1766993;81;21450;-71
2022/04/19 00:31:07;;;;;;;11.12;6.35;;;;;;;7.07;47.93;100390.48;1736431;82;21043;-71
2022/04/19 00:33:33;;;;;;;13.80;6.00;;;;;;;7.07;47.91;100388.33;1767051;81;21170;-71
2022/04/19 00:35:59;;;;;;;10.80;5.92;;;;;;;7.06;47.92;100390.63;1736428;82;21003;-70
2022/04/19 00:38:25;;;;;;;13.70;5.92;;;;;;;7.03;47.90;100393.92;1767035;81;20977;-71
2022/04/19 00:40:51;;;;;;;11.22;5.95;;;;;;;7.00;47.87;100392.87;1736597;82;20948;-71
2022/04/19 00:43:18;;;;;;;9.33;5.47;;;;;;;6.98;47.84;100388.70;1766176;81;21512;-70
2022/04/19 00:45:44;;;;;;;12.25;5.83;;;;;;;6.96;47.82;100387.55;1736676;82;21891;-72
2022/04/19 00:48:10;;;;;;;13.40;6.40;;;;;;;6.93;47.80;100376.39;1766691;81;20969;-70
2022/04/19 00:50:36;;;;;;;11.33;5.78;;;;;;;6.93;47.77;100375.07;1736536;82;21091;-70
2022/04/19 00:53:03;;;;;;;21.57;5.90;;;;;;;6.91;47.74;100380.99;1766550;81;20958;-71
2022/04/19 00:55:30;;;;;;;11.22;5.45;;;;;;;6.90;47.70;100376.66;1736606;82;20965;-70
2022/04/19 00:57:57;;;;;;;9.18;5.40;;;;;;;6.86;47.70;100373.98;1766742;81;20994;-70
2022/04/19 01:00:24;;;;;;;11.00;5.37;;;;;;;6.83;47.66;100376.91;1737893;81;20995;-70
2022/04/19 01:02:50;;;;;;;16.48;5.70;;;;;;;6.81;47.62;100377.56;1766626;81;20994;-70
2022/04/19 01:05:16;;;;;;;7.45;5.00;;;;;;;6.79;47.58;100366.28;1799539;79;20986;-70
2022/04/19 01:07:45;;;;;;;12.98;6.30;;;;;;;6.78;47.55;100372.55;1799618;79;20970;-70
2022/04/19 01:10:11;;;;;;;9.73;5.05;;;;;;;6.75;47.51;100371.04;1799149;79;21797;-70
2022/04/19 01:15:21;;;;;;;9.60;5.12;;;;;;;6.71;47.47;100369.66;1799155;79;21487;-71
2022/04/19 01:17:47;;;;;;;9.30;5.05;;;;;;;6.66;47.45;100367.08;1798681;79;21483;-71
2022/04/19 01:20:13;;;;;;;10.53;5.47;;;;;;;6.63;47.45;100364.24;1798818;79;21538;-71
2022/04/19 01:22:40;;;;;;;10.15;5.35;;;;;;;6.60;47.45;100365.86;1798660;79;22028;-71
2022/04/19 01:25:07;;;;;;;8.15;4.70;;;;;;;6.57;47.45;100361.34;1798786;79;21019;-71
2022/04/19 01:27:33;;;;;;;8.05;4.33;;;;;;;6.53;47.45;100358.98;1798676;79;21341;-71
2022/04/19 01:30:02;;;;;;;10.72;5.28;;;;;;;6.51;47.44;100356.95;1798853;79;21041;-71
2022/04/19 01:32:29;;;;;;;10.25;5.45;;;;;;;6.47;47.44;100363.52;1772611;79;20983;-71
2022/04/19 01:35:18;;;;;;;10.45;4.78;;;;;;;6.41;47.46;100352.19;1798619;79;21155;-71
2022/04/19 01:37:47;;;;;;;9.15;4.92;;;;;;;6.39;47.46;100351.98;1798767;79;26144;-71
2022/04/19 01:40:16;;;;;;;9.73;5.05;;;;;;;6.35;47.47;100350.12;1798709;79;21003;-70
2022/04/19 01:42:46;;;;;;;7.77;4.83;;;;;;;6.33;47.48;100349.41;1798989;79;21507;-70
2022/04/19 01:45:18;;;;;;;9.28;5.12;;;;;;;6.31;47.49;100354.52;1798755;79;21010;-71
2022/04/19 01:47:44;;;;;;;9.30;5.35;;;;;;;6.30;47.50;100345.73;1798890;79;21764;-70
2022/04/19 01:50:14;;;;;;;12.10;4.90;;;;;;;6.27;47.54;100335.91;1798614;79;21014;-71
2022/04/19 01:52:41;;;;;;;9.65;4.65;;;;;;;6.23;47.55;100335.37;1798707;79;20987;-70
2022/04/19 01:55:12;;;;;;;13.28;5.80;;;;;;;6.22;47.59;100335.53;1798737;79;20987;-70
2022/04/19 01:57:38;;;;;;;14.28;5.60;;;;;;;6.20;47.61;100346.25;1798556;79;21321;-71
2022/04/19 02:00:05;;;;;;;11.28;6.08;;;;;;;6.20;47.61;100346.25;1798612;79;21136;-70
2022/04/19 02:02:32;;;;;;;11.50;5.37;;;;;;;6.19;47.63;100342.44;1798314;79;20991;-70
2022/04/19 02:07:45;;;;;;;7.25;4.47;;;;;;;6.19;47.67;100344.60;1820429;78;22653;-68
2022/04/19 02:10:13;;;;;;;9.38;4.55;;;;;;;6.12;47.66;100346.16;1789006;80;20986;-68
2022/04/19 02:12:39;;;;;;;9.10;3.72;;;;;;;6.11;47.62;100354.22;1788477;80;21141;-70
2022/04/19 02:15:07;;;;;;;9.95;4.67;;;;;;;6.09;47.59;100345.08;1758207;80;20983;-70
2022/04/19 02:17:33;;;;;;;7.87;5.05;;;;;;;6.06;47.58;100346.70;1788631;80;20899;-70
2022/04/19 02:20:05;;;;;;;7.25;4.15;;;;;;;6.03;47.55;100341.69;1788822;80;20985;-70
2022/04/19 02:22:32;;;;;;;7.67;4.50;;;;;;;6.01;47.51;100339.69;1788668;80;20966;-71
2022/04/19 02:24:59;;;;;;;8.28;3.80;;;;;;;5.97;47.48;100336.98;1788761;80;21128;-70
2022/04/19 02:27:26;;;;;;;8.00;4.00;;;;;;;5.94;47.46;100336.78;1788769;80;20959;-70
2022/04/19 02:29:54;;;;;;;10.00;3.95;;;;;;;5.94;47.46;100337.27;1788633;80;21013;-70
2022/04/19 02:32:20;;;;;;;7.83;3.83;;;;;;;5.91;47.46;100334.39;1788830;80;21030;-70
2022/04/19 02:34:47;;;;;;;10.10;4.80;;;;;;;5.89;47.46;100332.87;1788635;80;20978;-70
2022/04/19 02:37:13;;;;;;;8.08;4.45;;;;;;;5.88;47.43;100329.87;1788808;80;21074;-70
2022/04/19 02:39:39;;;;;;;10.15;4.75;;;;;;;5.87;47.42;100324.25;1788791;80;21034;-70
2022/04/19 02:42:06;;;;;;;9.43;4.53;;;;;;;5.86;47.39;100322.09;1788673;80;21073;-70
2022/04/19 02:44:32;;;;;;;12.10;4.92;;;;;;;5.85;47.40;100324.83;1789047;80;21086;-70
2022/04/19 02:46:59;;;;;;;13.90;5.40;;;;;;;5.83;47.42;100321.02;1788916;80;20986;-70
2022/04/19 02:49:25;;;;;;;11.05;5.40;;;;;;;5.82;47.40;100319.83;1788989;80;21158;-70
2022/04/19 02:51:51;;;;;;;11.38;6.28;;;;;;;5.80;47.41;100309.40;1788718;80;20971;-70
2022/04/19 02:54:17;;;;;;;12.18;5.03;;;;;;;5.76;47.43;100309.81;1788833;80;20875;-70
2022/04/19 02:56:43;;;;;;;13.80;5.08;;;;;;;5.73;47.43;100305.66;1788792;80;21009;-70
2022/04/19 02:59:09;;;;;;;11.03;4.87;;;;;;;5.71;47.43;100306.74;1788736;80;21022;-70
2022/04/19 03:01:36;;;;;;;9.25;4.78;;;;;;;5.67;47.42;100294.77;1788881;80;21165;-71
2022/04/19 03:04:02;;;;;;;10.03;4.40;;;;;;;5.60;47.47;100298.47;1788731;80;21483;-70
2022/04/19 03:06:28;;;;;;;10.38;4.67;;;;;;;5.57;47.48;100296.11;1785837;80;22297;-70
2022/04/19 03:08:54;;;;;;;8.00;4.28;;;;;;;5.52;47.53;100292.55;1780452;80;21042;-70
2022/04/19 03:11:20;;;;;;;9.75;4.20;;;;;;;5.48;47.52;100291.19;1780820;80;21116;-70
2022/04/19 03:13:46;;;;;;;9.70;4.30;;;;;;;5.42;47.54;100297.02;1780632;80;21440;-71
2022/04/19 03:16:14;;;;;;;9.58;3.95;;;;;;;5.38;47.58;100290.33;1780615;80;20971;-70
2022/04/19 03:18:44;;;;;;;9.75;4.03;;;;;;;5.32;47.60;100293.54;1780062;80;20967;-70
2022/04/19 03:21:10;;;;;;;7.05;4.28;;;;;;;5.27;47.61;100286.53;1780561;80;21444;-70
2022/04/19 03:29:07;;;;;;;9.70;5.20;;;;;;;5.14;47.71;100289.91;1780127;80;21018;-70
2022/04/19 03:31:34;;;;;;;15.18;6.17;;;;;;;5.10;47.75;100285.90;1780189;80;20998;-70
2022/04/19 03:34:02;;;;;;;10.75;5.42;;;;;;;5.06;47.77;100289.78;1716418;82;21024;-72
2022/04/19 03:36:30;;;;;;;9.75;5.00;;;;;;;5.02;47.80;100289.22;1780347;80;21057;-70
2022/04/19 03:38:56;;;;;;;11.93;5.15;;;;;;;4.98;47.83;100283.02;1779942;80;21042;-70
2022/04/19 03:41:22;;;;;;;12.47;5.12;;;;;;;4.93;47.90;100283.42;1780080;80;21050;-70
2022/04/19 03:43:49;;;;;;;10.68;4.15;;;;;;;4.90;47.96;100284.18;1780299;80;21038;-70
2022/04/19 03:46:15;;;;;;;7.95;3.42;;;;;;;4.87;48.00;100284.45;1780273;80;21539;-70
2022/04/19 03:48:41;;;;;;;9.78;4.05;;;;;;;4.84;48.04;100283.41;1780216;80;21015;-70
2022/04/19 03:51:07;;;;;;;8.00;4.12;;;;;;;4.81;48.07;100288.97;1780226;80;21812;-70
2022/04/19 03:53:33;;;;;;;6.92;3.92;;;;;;;4.77;48.13;100284.45;1780134;80;21620;-70
2022/04/19 03:55:59;;;;;;;7.15;3.80;;;;;;;4.74;48.17;100289.16;1780118;80;20950;-70
2022/04/19 03:58:26;;;;;;;7.47;4.15;;;;;;;4.70;48.20;100287.76;1780341;80;21026;-70
2022/04/19 04:00:54;;;;;;;7.87;4.45;;;;;;;4.66;48.24;100287.19;1780275;80;20987;-70
2022/04/19 04:03:21;;;;;;;10.75;4.10;;;;;;;4.62;48.29;100284.95;1780100;80;21295;-70
2022/04/19 04:05:47;;;;;;;8.85;4.05;;;;;;;4.59;48.33;100290.50;1780127;80;20999;-70
2022/04/19 04:08:13;;;;;;;8.28;4.97;;;;;;;4.53;48.38;100296.69;1787564;78;21493;-70
2022/04/19 04:10:39;;;;;;;9.45;4.45;;;;;;;4.50;48.44;100295.61;1788259;80;20946;-70
2022/04/19 04:13:05;;;;;;;8.45;4.78;;;;;;;4.47;48.52;100293.72;1788291;80;21521;-70
2022/04/19 04:15:31;;;;;;;10.10;4.95;;;;;;;4.41;48.55;100299.06;1788632;80;22094;-70
2022/04/19 04:17:57;;;;;;;10.90;4.95;;;;;;;4.40;48.64;100294.74;1788166;80;20986;-70
2022/04/19 04:20:23;;;;;;;12.53;4.70;;;;;;;4.42;48.70;100302.06;1788067;80;21029;-70
2022/04/19 04:22:49;;;;;;;11.68;6.17;;;;;;;4.43;48.74;100295.79;1788388;80;21479;-70
2022/04/19 04:25:15;;;;;;;14.90;7.80;;;;;;;4.67;48.91;100289.35;1788234;80;20987;-70
2022/04/19 04:27:41;;;;;;;15.70;7.70;;;;;;;5.26;49.02;100287.98;1788344;78;21762;-70
2022/04/19 04:30:08;;;;;;;12.73;8.68;;;;;;;5.91;48.98;100274.84;1788243;80;21030;-71
2022/04/19 04:32:34;;;;;;;9.63;5.20;;;;;;;6.72;48.87;100280.40;1788446;80;21042;-71
2022/04/19 04:35:00;;;;;;;8.50;4.78;;;;;;;6.90;48.45;100271.47;1788246;80;20867;-70
2022/04/19 04:37:26;;;;;;;8.00;4.47;;;;;;;7.15;48.26;100267.25;1788529;80;21062;-70
2022/04/19 04:39:53;;;;;;;8.10;4.78;;;;;;;6.93;48.02;100253.13;1788181;80;21077;-71
2022/04/19 04:42:19;;;;;;;13.30;6.35;;;;;;;7.18;48.23;100255.53;1787849;80;21534;-70
2022/04/19 04:44:45;;;;;;;18.48;8.10;;;;;;;7.56;48.15;100246.39;1788118;80;21459;-70
2022/04/19 04:49:58;;;;;;;13.00;8.10;;;;;;;6.88;47.87;100260.20;1788489;80;21003;-70
2022/04/19 04:52:24;;;;;;;12.60;6.47;;;;;;;6.51;47.85;100268.21;1788124;80;21117;-71
2022/04/19 04:54:50;;;;;;;8.65;5.80;;;;;;;6.24;47.86;100268.20;1788164;80;21010;-71
2022/04/19 04:57:20;;;;;;;20.25;5.12;;;;;;;6.01;47.86;100265.58;1788332;80;20986;-70
2022/04/19 04:59:48;;;;;;;14.93;6.55;;;;;;;5.84;47.85;100262.32;1758692;80;28094;-70
2022/04/19 05:02:14;;;;;;;15.20;6.22;;;;;;;5.72;47.86;100255.52;1767583;80;21077;-70
2022/04/19 05:04:40;;;;;;;12.13;5.30;;;;;;;5.64;47.88;100261.98;1757314;81;21688;-70
2022/04/19 05:07:06;;;;;;;12.90;6.08;;;;;;;5.59;47.92;100270.38;1754132;81;21010;-70
2022/04/19 05:09:32;;;;;;;12.05;6.12;;;;;;;5.59;47.94;100269.05;1748657;81;21485;-70
2022/04/19 05:11:58;;;;;;;8.05;5.35;;;;;;;5.56;47.93;100271.14;1749177;82;21542;-70
2022/04/19 05:14:24;;;;;;;12.60;5.75;;;;;;;5.56;47.94;100313.46;1749115;81;21296;-69
2022/04/19 05:16:50;;;;;;;10.50;4.40;;;;;;;5.64;47.97;100296.38;1717400;82;21136;-70
2022/04/19 05:19:16;;;;;;;15.32;6.47;;;;;;;5.57;47.96;100289.98;1749111;82;20970;-70
2022/04/19 05:21:43;;;;;;;11.68;6.72;;;;;;;5.42;48.03;100299.66;1749094;82;21062;-70
2022/04/19 05:24:09;;;;;;;17.40;9.50;;;;;;;5.29;48.10;100289.02;1748773;81;21475;-71
2022/04/19 05:26:35;;;;;;;10.63;5.78;;;;;;;5.20;48.17;100296.47;1749158;82;21029;-70
2022/04/19 05:29:01;;;;;;;12.43;4.70;;;;;;;5.15;48.23;100306.61;1749253;81;20987;-70
2022/04/19 05:31:27;;;;;;;9.45;5.72;;;;;;;5.06;48.29;100296.39;1748664;82;20993;-69
2022/04/19 05:33:53;;;;;;;10.40;5.40;;;;;;;5.21;48.35;100303.41;1749070;82;21018;-70
2022/04/19 05:36:19;;;;;;;13.45;6.08;;;;;;;5.49;48.40;100290.20;1749104;81;20979;-70
2022/04/19 05:38:45;;;;;;;11.90;7.50;;;;;;;5.66;48.42;100296.61;1749096;82;20995;-70
2022/04/19 05:41:11;;;;;;;14.65;7.28;;;;;;;5.88;48.44;100288.84;1749289;82;21177;-70
2022/04/19 05:43:37;;;;;;;11.55;6.12;;;;;;;6.23;48.45;100295.65;1748961;82;21467;-70
2022/04/19 05:46:03;;;;;;;15.20;6.42;;;;;;;6.42;48.45;100294.27;1749141;81;21003;-70
2022/04/19 05:48:29;;;;;;;15.05;6.90;;;;;;;6.45;48.48;100297.11;1749049;82;20983;-70
2022/04/19 05:50:55;;;;;;;13.72;6.65;;;;;;;6.20;48.46;100298.59;1749108;82;20903;-70
2022/04/19 05:53:21;;;;;;;12.35;5.72;;;;;;;5.91;48.49;100315.05;1748784;82;21190;-70
2022/04/19 05:55:48;;;;;;;18.70;7.92;;;;;;;5.68;48.56;100305.22;1748899;81;20994;-70
2022/04/19 05:58:14;;;;;;;16.80;7.12;;;;;;;5.58;48.65;100304.41;1749136;82;20998;-70
2022/04/19 06:00:40;;;;;;;19.10;6.90;;;;;;;5.58;48.71;100306.20;1749183;82;21018;-70
2022/04/19 06:05:51;;;;;;;11.18;5.80;;;;;;;5.42;48.82;100310.23;1772478;80;21957;-71
2022/04/19 06:08:17;;;;;;;14.28;6.12;;;;;;;5.30;48.94;100308.72;1762125;80;21014;-71
2022/04/19 06:10:43;;;;;;;9.45;5.05;;;;;;;5.24;49.07;100303.97;1749770;80;21006;-71
2022/04/19 06:13:09;;;;;;;8.93;4.97;;;;;;;5.19;49.14;100304.88;1769487;80;20978;-71
2022/04/19 06:15:37;;;;;;;8.30;5.00;;;;;;;5.14;49.27;100315.02;1779929;80;21018;-71
2022/04/19 06:18:04;;;;;;;9.23;5.67;;;;;;;5.10;49.36;100312.33;1780180;80;21877;-70
2022/04/19 06:20:30;;;;;;;12.13;5.72;;;;;;;4.99;49.50;100300.55;1780098;80;20951;-71
2022/04/19 06:22:56;;;;;;;10.03;5.70;;;;;;;4.92;49.65;100295.47;1779844;80;21062;-70
2022/04/19 06:25:22;;;;;;;13.55;6.60;;;;;;;4.86;49.80;100285.42;1780047;80;21062;-70
2022/04/19 06:27:49;;;;;;;23.57;7.97;;;;;;;4.88;49.96;100286.13;1779962;80;21054;-71
2022/04/19 06:30:15;;;;;;;13.68;5.97;;;;;;;4.92;50.08;100293.66;1780199;80;21114;-70
2022/04/19 06:32:42;;;;;;;9.73;5.50;;;;;;;4.95;50.25;100281.98;1778036;80;21014;-70
2022/04/19 06:35:13;;;;;;;10.20;5.60;;;;;;;4.98;50.34;100292.27;1779414;80;21057;-70
2022/04/19 06:37:36;;;;;;;13.10;6.28;;;;;;;4.98;50.48;100298.88;1778989;80;20984;-71
2022/04/19 06:40:03;;;;;;;9.53;5.62;;;;;;;5.02;50.59;100291.02;1778679;80;20975;-70
2022/04/19 06:42:29;;;;;;;12.07;5.78;;;;;;;5.05;50.72;100278.85;1780123;80;21900;-70
2022/04/19 06:44:56;;;;;;;8.63;5.10;;;;;;;5.05;50.84;100272.25;1779664;80;21006;-71
2022/04/19 06:47:24;;;;;;;12.75;6.53;;;;;;;5.14;51.00;100274.05;1779723;80;21009;-70
2022/04/19 06:49:50;;;;;;;11.50;6.00;;;;;;;5.28;51.14;100274.13;1779983;80;20971;-71
2022/04/19 06:52:16;;;;;;;20.05;8.53;;;;;;;5.60;51.29;100276.47;1779767;80;20999;-71
2022/04/19 06:54:42;;;;;;;18.50;9.20;;;;;;;5.99;51.41;100282.91;1780087;80;21787;-71
2022/04/19 06:57:08;;;;;;;16.70;8.58;;;;;;;6.30;51.53;100270.26;1780054;80;20880;-71
2022/04/19 06:59:34;;;;;;;15.63;9.20;;;;;;;6.81;51.66;100272.87;1780264;80;20998;-71
2022/04/19 07:02:00;;;;;;;14.85;9.05;;;;;;;7.27;51.69;100271.36;1780029;80;20939;-71
2022/04/19 07:04:26;;;;;;;22.55;11.35;;;;;;;7.37;51.70;100269.95;1780231;80;21077;-71
2022/04/19 07:06:52;;;;;;;23.27;12.05;;;;;;;7.45;51.84;100265.55;1780199;78;21145;-71
2022/04/19 07:09:18;;;;;;;17.35;9.10;;;;;;;7.47;51.85;100258.75;1788758;79;20844;-71
2022/04/19 07:11:44;;;;;;;25.52;12.93;;;;;;;7.49;51.94;100257.60;1789044;79;21073;-71
2022/04/19 07:14:10;;;;;;;17.35;8.63;;;;;;;7.50;51.92;100256.63;1789022;80;21526;-71
2022/04/19 07:16:36;;;;;;;19.70;9.50;;;;;;;7.50;51.98;100260.60;1789290;79;21539;-71
2022/04/19 07:19:02;;;;;;;16.75;9.18;;;;;;;7.56;52.00;100264.97;1788792;79;21633;-71
2022/04/19 07:26:56;;;;;;;8.55;5.22;;;;;;;7.62;52.06;100271.81;1788852;79;21002;-71
2022/04/19 07:29:21;;;;;;;15.25;5.28;;;;;;;7.74;52.15;100268.44;1788969;79;21045;-71
2022/04/19 07:31:49;;;;;;;11.53;6.15;;;;;;;7.85;52.18;100281.42;1788605;79;21125;-72
2022/04/19 07:34:16;;;;;;;9.90;4.80;;;;;;;7.88;52.20;100281.14;1788996;80;21026;-72
2022/04/19 07:36:42;;;;;;;21.60;11.03;;;;;;;7.93;52.24;100286.80;1788880;79;21018;-71
2022/04/19 07:39:11;;;;;;;23.55;11.68;;;;;;;7.99;52.31;100279.53;1788898;80;20979;-71
2022/04/19 07:41:37;;;;;;;14.65;7.62;;;;;;;8.00;52.32;100291.34;1788522;80;21019;-71
2022/04/19 07:44:05;;;;;;;10.35;5.70;;;;;;;7.89;52.34;100289.42;1789121;80;21782;-71
2022/04/19 07:46:31;;;;;;;14.20;6.22;;;;;;;7.81;52.38;100293.38;1788674;80;21069;-72
2022/04/19 07:48:57;;;;;;;14.87;6.17;;;;;;;7.73;52.42;100299.45;1788810;79;21006;-71
2022/04/19 07:51:24;;;;;;;8.70;5.65;;;;;;;7.76;52.44;100305.77;1788965;79;20983;-71
2022/04/19 07:53:50;;;;;;;9.93;5.37;;;;;;;7.82;52.47;100301.66;1788727;80;21021;-71
2022/04/19 07:56:16;;;;;;;14.28;6.72;;;;;;;7.85;52.44;100300.84;1788842;79;21513;-71
2022/04/19 07:58:49;;;;;;;9.33;4.58;;;;;;;7.83;52.43;100302.00;1788959;80;21498;-71
2022/04/19 08:01:15;;;;;;;11.97;6.15;;;;;;;7.82;52.40;100305.63;1787777;80;21045;-71
2022/04/19 08:03:41;;;;;;;11.85;5.67;;;;;;;7.76;52.43;100309.75;1788503;80;20966;-71
2022/04/19 08:06:07;;;;;;;7.87;5.00;;;;;;;7.76;52.42;100303.60;1788870;80;21014;-71
2022/04/19 08:08:35;;;;;;;18.85;8.40;;;;;;;7.79;52.40;100305.95;1783413;80;21132;-72
2022/04/19 08:11:03;;;;;;;15.85;8.30;;;;;;;8.02;52.42;100307.12;1779710;80;20963;-72
2022/04/19 08:13:29;;;;;;;18.77;7.83;;;;;;;8.29;52.39;100304.34;1780136;80;21563;-72
2022/04/19 08:15:55;;;;;;;22.45;10.32;;;;;;;8.51;52.35;100301.11;1780087;80;20996;-72
2022/04/19 08:18:21;;;;;;;13.45;5.95;;;;;;;8.75;52.29;100310.20;1780108;80;21038;-71
2022/04/19 08:20:47;;;;;;;11.78;6.58;;;;;;;8.81;52.14;100316.20;1780071;80;21384;-72
2022/04/19 08:23:13;;;;;;;11.78;5.87;;;;;;;8.61;52.05;100321.44;1779371;80;20994;-71
2022/04/19 08:25:40;;;;;;;14.30;7.95;;;;;;;8.53;52.00;100320.41;1780147;80;21443;-71
2022/04/19 08:28:07;;;;;;;14.75;5.83;;;;;;;8.41;51.96;100323.47;1779811;80;20991;-72
2022/04/19 08:30:33;;;;;;;9.73;5.60;;;;;;;8.28;51.94;100321.26;1780243;80;21053;-71
2022/04/19 08:32:59;;;;;;;11.08;5.30;;;;;;;8.14;51.87;100321.80;1779707;80;21188;-71
2022/04/19 08:35:25;;;;;;;9.93;6.17;;;;;;;7.96;51.84;100325.83;1779537;80;21082;-71
2022/04/19 08:37:52;;;;;;;8.63;5.97;;;;;;;7.84;51.88;100324.91;1779811;80;21026;-71
2022/04/19 08:40:18;;;;;;;15.78;9.15;;;;;;;7.76;51.92;100332.80;1780134;80;21031;-71
2022/04/19 08:42:44;;;;;;;12.65;6.47;;;;;;;7.67;51.98;100325.77;1779937;80;21031;-71
2022/04/19 08:45:14;;;;;;;11.43;6.90;;;;;;;7.63;52.03;100329.72;1779781;80;21203;-71
2022/04/19 08:47:45;;;;;;;16.67;8.55;;;;;;;7.65;52.08;100338.34;1780033;79;20931;-71
2022/04/19 08:50:15;;;;;;;12.47;6.90;;;;;;;7.66;52.11;100330.73;1779997;80;21479;-71
2022/04/19 08:52:41;;;;;;;16.23;8.88;;;;;;;7.68;52.17;100346.83;1779026;80;21558;-71
2022/04/19 08:57:53;;;;;;;16.73;8.25;;;;;;;7.84;52.24;100351.46;1779742;80;21118;-71
2022/04/19 09:00:24;;;;;;;12.18;7.67;;;;;;;7.80;52.28;100348.77;1780065;80;21026;-71
2022/04/19 09:02:47;;;;;;;12.85;7.03;;;;;;;7.81;52.34;100347.80;1754914;80;21716;-71
2022/04/19 09:05:22;;;;;;;15.05;7.67;;;;;;;7.81;52.36;100357.89;1757168;80;21585;-71
2022/04/19 09:07:52;;;;;;;13.65;6.95;;;;;;;7.83;52.43;100355.09;1762940;80;21634;-71
2022/04/19 09:10:30;;;;;;;16.42;9.28;;;;;;;7.91;52.49;100350.70;1766026;80;21169;-71
2022/04/19 09:13:08;;;;;;;15.93;7.97;;;;;;;8.11;52.53;100355.81;1768958;80;21508;-71
2022/04/19 09:15:42;;;;;;;17.05;9.03;;;;;;;8.31;52.57;100355.48;1767797;80;21050;-72
2022/04/19 09:18:29;;;;;;;111.65;72.50;;;;;;;8.42;52.55;100352.56;1779177;80;21090;-72
2022/04/19 09:21:00;;;;;;;31.45;28.32;;;;;;;8.58;52.58;100361.63;1764720;80;21011;-72
2022/04/19 09:23:31;;;;;;;13.13;11.73;;;;;;;8.65;52.53;100360.84;1763190;78;21106;-72
2022/04/19 09:26:00;;;;;;;10.82;6.90;;;;;;;8.67;52.54;100368.64;1769885;78;21051;-72
2022/04/19 09:28:27;;;;;;;13.03;6.22;;;;;;;8.73;52.55;100367.51;1766927;78;21492;-72
2022/04/19 09:30:58;;;;;;;10.82;5.65;;;;;;;8.90;52.58;100375.89;1775323;78;21015;-71
2022/04/19 09:33:25;;;;;;;8.73;5.22;;;;;;;8.93;52.55;100377.42;1759165;79;21598;-71
2022/04/19 09:35:53;;;;;;;10.68;6.10;;;;;;;9.04;52.48;100383.27;1766504;78;21309;-72
2022/04/19 09:38:49;;;;;;;8.90;5.28;;;;;;;9.14;52.43;100380.50;1754776;78;20995;-72
2022/04/19 09:41:18;;;;;;;11.65;5.28;;;;;;;9.13;52.31;100374.83;1772011;78;21674;-72
2022/04/19 09:43:44;;;;;;;7.57;5.20;;;;;;;8.96;52.23;100379.27;1771334;78;20976;-71
2022/04/19 09:46:10;;;;;;;9.78;5.30;;;;;;;8.88;52.18;100387.69;1639583;82;21054;-71
2022/04/19 09:48:39;;;;;;;10.48;5.55;;;;;;;8.86;52.20;100387.03;1666604;81;21172;-71
2022/04/19 09:51:10;;;;;;;15.23;6.33;;;;;;;8.90;52.21;100397.69;1716017;81;21075;-72
2022/04/19 09:53:44;;;;;;;10.30;5.83;;;;;;;8.85;52.21;100388.02;1715197;81;21024;-71
2022/04/19 09:56:20;;;;;;;9.35;5.30;;;;;;;8.79;52.24;100388.66;1718044;81;21550;-72
2022/04/19 09:58:48;;;;;;;10.28;5.55;;;;;;;8.71;52.31;100388.61;1713337;81;21087;-72
2022/04/19 10:09:37;;;;;;;9.43;5.78;;;;;;;8.51;52.79;100407.41;1770706;78;21065;-71
2022/04/19 10:12:06;;;;;;;25.55;18.30;;;;;;;8.44;52.96;100417.00;1758324;78;21063;-72
2022/04/19 10:14:33;;;;;;;14.85;8.33;;;;;;;8.38;53.18;100417.64;1758906;78;21095;-72
2022/04/19 10:17:00;;;;;;;17.95;12.50;;;;;;;8.25;53.33;100417.18;1770598;78;21081;-72
2022/04/19 10:19:27;;;;;;;48.55;33.08;;;;;;;8.36;53.56;100414.31;1765731;78;21503;-72
2022/04/19 10:21:53;;;;;;;9.95;4.78;;;;;;;8.64;53.73;100411.00;1767985;78;20993;-72
2022/04/19 10:24:20;;;;;;;6.65;4.00;;;;;;;8.98;53.85;100414.50;1751870;78;21016;-72
2022/04/19 10:26:48;;;;;;;5.95;4.05;;;;;;;9.14;53.79;100422.23;1763765;78;21806;-71
2022/04/19 10:29:32;;;;;;;5.75;4.08;;;;;;;8.89;53.75;100427.92;1766267;78;21028;-72
2022/04/19 10:32:01;;;;;;;7.17;4.92;;;;;;;8.73;53.80;100423.83;1695458;83;21059;-71
2022/04/19 10:34:35;;;;;;;8.90;4.97;;;;;;;8.55;53.91;100427.06;1706938;81;21625;-71
2022/04/19 10:37:21;;;;;;;7.92;5.10;;;;;;;8.31;54.04;100432.53;1705162;81;21102;-71
2022/04/19 10:39:53;;;;;;;5.90;4.42;;;;;;;8.05;54.27;100430.30;1716558;81;21884;-72
2022/04/19 10:42:38;;;;;;;5.78;5.15;;;;;;;8.04;54.50;100432.61;1697937;81;21092;-72
2022/04/19 10:45:19;;;;;;;7.95;7.15;;;;;;;7.83;54.73;100428.10;1713559;81;21101;-71
2022/04/19 10:48:02;;;;;;;8.78;5.22;;;;;;;7.83;54.96;100432.09;1715953;81;21102;-71
2022/04/19 10:50:34;;;;;;;8.23;3.92;;;;;;;8.05;55.06;100427.65;1709067;81;21066;-71
2022/04/19 10:53:09;;;;;;;5.67;3.87;;;;;;;8.39;55.08;100421.13;1694112;83;21368;-71
2022/04/19 10:55:37;;;;;;;5.80;3.35;;;;;;;8.75;55.03;100424.52;1723921;81;21066;-71
2022/04/19 10:58:09;;;;;;;4.97;3.45;;;;;;;8.92;54.78;100423.62;1716996;81;21436;-72
2022/04/19 11:00:44;;;;;;;6.97;4.45;;;;;;;8.97;54.65;100431.97;1720037;81;21542;-72
2022/04/19 11:03:13;;;;;;;10.10;3.90;;;;;;;9.06;54.46;100425.68;1712035;81;21030;-71
2022/04/19 11:05:50;;;;;;;5.67;3.65;;;;;;;9.19;54.21;100425.22;1707677;81;21562;-71
2022/04/19 11:08:31;;;;;;;8.05;4.35;;;;;;;9.20;53.84;100418.92;1720848;81;21047;-72
2022/04/19 11:11:21;;;;;;;5.53;4.20;;;;;;;9.50;53.64;100412.52;1735618;81;21066;-72
2022/04/19 11:14:23;;;;;;;5.55;4.40;;;;;;;9.74;53.32;100409.59;1736441;81;21671;-71
2022/04/19 11:16:52;;;;;;;5.78;4.58;;;;;;;9.84;53.02;100403.61;1718000;81;21061;-71
2022/04/19 11:19:23;;;;;;;6.28;4.55;;;;;;;9.92;52.64;100413.75;1757406;80;21009;-71
2022/04/19 11:21:58;;;;;;;6.33;4.97;;;;;;;9.87;52.27;100413.92;1723860;81;21034;-71
2022/04/19 11:25:00;;;;;;;7.35;5.08;;;;;;;9.66;51.98;100418.39;1719392;81;21044;-71
2022/04/19 11:30:22;;;;;;;7.17;5.20;;;;;;;10.19;51.62;100423.31;1903413;73;24220;-72
2022/04/19 11:32:55;;;;;;;6.55;4.83;;;;;;;10.00;51.33;100426.25;1864422;75;21064;-72
2022/04/19 11:35:21;;;;;;;7.78;4.47;;;;;;;9.77;51.10;100419.91;1870876;75;21134;-72
2022/04/19 11:37:48;;;;;;;6.72;4.28;;;;;;;9.48;50.90;100423.84;1865916;75;20958;-72
2022/04/19 11:48:50;;;;;;;10.60;6.28;;;;;;;8.85;50.64;100431.89;1870802;75;21088;-72
2022/04/19 11:51:20;;;;;;;5.97;5.12;;;;;;;8.70;50.69;100433.45;1865136;75;20953;-72
2022/04/19 11:53:47;;;;;;;7.65;5.50;;;;;;;8.80;50.83;100432.84;1865445;75;20988;-72
2022/04/19 11:56:14;;;;;;;9.83;7.08;;;;;;;9.07;50.93;100432.67;1873126;75;21074;-71
2022/04/19 11:58:43;;;;;;;9.73;6.10;;;;;;;9.40;50.92;100436.28;1865477;75;21550;-71
2022/04/19 12:01:10;;;;;;;9.48;6.25;;;;;;;9.61;50.84;100438.50;1871950;75;21101;-72
2022/04/19 12:03:39;;;;;;;8.00;5.85;;;;;;;9.50;50.68;100437.81;1873515;75;21024;-71
2022/04/19 12:06:14;;;;;;;13.03;6.70;;;;;;;9.44;50.65;100443.79;1870893;75;21716;-71
2022/04/19 12:08:51;;;;;;;8.38;6.60;;;;;;;9.58;50.57;100437.50;1871195;75;21069;-72
2022/04/19 12:11:29;;;;;;;9.48;6.22;;;;;;;9.50;50.31;100427.16;1837199;76;21022;-72
2022/04/19 12:13:56;;;;;;;7.92;6.12;;;;;;;9.61;50.18;100430.52;1798328;78;22428;-71
2022/04/19 12:16:34;;;;;;;9.58;5.97;;;;;;;9.49;49.92;100440.16;1809302;78;21147;-72
2022/04/19 12:19:02;;;;;;;10.15;6.60;;;;;;;9.44;49.81;100434.47;1803694;78;21018;-72